This is the latest recevied weather packets stored in our database for station/object KD9YTS-13. If no packets are shown the sender has not sent any weather packets the latest 10 day(s).
| Time | Temp. | Humidity | Pressure | Rain* | Wind** | Luminosity | Snow |
|---|---|---|---|---|---|---|---|
| 1777385782 | 7.22° C | 8% | - | 0 mm | - | - | - |
| 1777384582 | 6.67° C | 8% | - | 0 mm | - | - | - |
| 1777383382 | -17.78° C | 100% | - | 0 mm | - | - | - |
| 1777382182 | -17.78° C | 100% | - | 0 mm | - | - | - |
| 1777380982 | -17.78° C | 100% | - | 0 mm | - | - | - |
| 1777379782 | 6.11° C | 8% | - | 0 mm | - | - | - |
| 1777378582 | -17.78° C | 100% | - | 0 mm | - | - | - |
| 1777377382 | -17.78° C | 100% | - | 0 mm | - | - | - |
| 1777376184 | -17.78° C | 100% | - | 0 mm | - | - | - |
| 1777374982 | 6.11° C | 8% | - | 0 mm | - | - | - |
| 1777373782 | 6.11° C | 9% | - | 0 mm | - | - | - |
| 1777372582 | -17.78° C | 100% | - | 0 mm | - | - | - |
| 1777371382 | -17.78° C | 100% | - | 0 mm | - | - | - |
| 1777370182 | -17.78° C | 100% | - | 0 mm | - | - | - |
| 1777368982 | 7.22° C | 9% | - | 0 mm | - | - | - |
| 1777367782 | -17.78° C | 100% | - | 0.25 mm | - | - | - |
| 1777366582 | -17.78° C | 100% | - | 0.51 mm | - | - | - |
| 1777365382 | -17.78° C | 100% | - | 0.76 mm | - | - | - |
| 1777364183 | 7.78° C | 9% | - | 0.76 mm | - | - | - |
| 1777362983 | 7.78° C | 9% | - | 0.51 mm | - | - | - |
| 1777361783 | 8.33° C | 9% | - | 0.25 mm | - | - | - |
| 1777360583 | -17.78° C | 100% | - | 0 mm | - | - | - |
| 1777359383 | -17.78° C | 100% | - | 0 mm | - | - | - |
| 1777358183 | -17.78° C | 100% | - | 0 mm | - | - | - |
| 1777356983 | -17.78° C | 100% | - | 0.25 mm | - | - | - |
* Rain latest hour (hover to see other rain measurements)
** Current wind speed in m/s (hover to see current wind gust speed)